Time;durP1;ratioP1;P1;durP2;ratioP2;P2;SDS_P1;SDS_P2;PMS_P1;PMS_P2;Temp;Humidity;BMP_temperature;BMP_pressure;BME280_temperature;BME280_humidity;BME280_pressure;Samples;Min_cycle;Max_cycle;Signal;HPM_P1;HPM_P2
2021/05/17 00:02:16;;;;;;;21.55;10.32;;;;;;;9.41;91.85;100191.50;5017804;28;20061;-72
2021/05/17 00:04:43;;;;;;;26.33;10.93;;;;;;;9.39;92.36;100185.38;5020299;28;20466;-71
2021/05/17 00:07:11;;;;;;;22.75;11.40;;;;;;;9.37;92.18;100190.75;5017498;28;20065;-71
2021/05/17 00:09:39;;;;;;;21.00;10.65;;;;;;;9.36;91.91;100183.69;5024345;28;20096;-71
2021/05/17 00:12:07;;;;;;;24.90;11.70;;;;;;;9.34;92.28;100186.38;5021577;28;20065;-72
2021/05/17 00:14:36;;;;;;;20.30;10.63;;;;;;;9.34;92.16;100175.75;5017376;28;20119;-71
2021/05/17 00:17:06;;;;;;;23.10;11.55;;;;;;;9.31;91.95;100175.00;5018779;28;20065;-72
2021/05/17 00:19:34;;;;;;;22.33;11.88;;;;;;;9.29;92.27;100164.41;5019508;28;20065;-71
2021/05/17 00:22:01;;;;;;;22.15;11.57;;;;;;;9.29;92.59;100176.84;5019692;28;20365;-71
2021/05/17 00:24:30;;;;;;;21.17;10.13;;;;;;;9.28;92.19;100178.66;5018077;28;20490;-71
2021/05/17 00:26:59;;;;;;;19.23;10.60;;;;;;;9.26;92.22;100169.88;5022225;28;20058;-71
2021/05/17 00:29:27;;;;;;;20.60;10.90;;;;;;;9.19;92.54;100167.47;5018042;28;20313;-71
2021/05/17 00:31:54;;;;;;;19.77;10.45;;;;;;;9.14;92.30;100172.94;5016751;28;20344;-71
2021/05/17 00:34:24;;;;;;;21.15;10.45;;;;;;;9.11;92.58;100167.78;5016207;28;20498;-72
2021/05/17 00:36:52;;;;;;;17.17;9.80;;;;;;;9.11;92.61;100168.63;5019201;28;21539;-70
2021/05/17 00:39:19;;;;;;;21.60;9.98;;;;;;;9.10;92.59;100160.69;5015323;28;20053;-70
2021/05/17 00:41:47;;;;;;;21.67;11.27;;;;;;;9.07;92.55;100155.47;5017959;28;20102;-70
2021/05/17 00:44:15;;;;;;;16.13;9.05;;;;;;;9.07;92.27;100156.34;5018958;28;20068;-69
2021/05/17 00:46:44;;;;;;;18.40;10.35;;;;;;;9.00;92.46;100162.81;5017028;28;20061;-69
2021/05/17 00:49:11;;;;;;;18.35;10.02;;;;;;;8.98;92.64;100151.38;5015522;28;20109;-69
2021/05/17 00:51:40;;;;;;;18.58;9.43;;;;;;;8.95;92.35;100154.13;5020324;28;20073;-69
2021/05/17 00:54:07;;;;;;;20.30;9.60;;;;;;;8.89;93.11;100155.22;5020234;28;20057;-69
2021/05/17 00:56:35;;;;;;;18.55;9.57;;;;;;;8.89;92.80;100157.03;5014808;28;20068;-71
2021/05/17 00:59:03;;;;;;;18.33;9.63;;;;;;;8.91;92.93;100152.53;5017230;28;20065;-68
2021/05/17 01:01:30;;;;;;;17.15;9.00;;;;;;;8.89;92.62;100155.22;5015807;28;20054;-69
2021/05/17 01:03:57;;;;;;;17.80;9.20;;;;;;;8.83;92.65;100144.78;5020007;28;20088;-69
2021/05/17 01:06:25;;;;;;;19.48;9.20;;;;;;;8.79;92.96;100153.81;5016248;28;20061;-69
2021/05/17 01:08:59;;;;;;;20.17;9.43;;;;;;;8.75;93.01;100161.03;5020921;28;20147;-69
2021/05/17 01:11:28;;;;;;;17.15;9.05;;;;;;;8.70;93.07;100151.47;5015356;28;20135;-71
2021/05/17 01:13:57;;;;;;;17.20;8.65;;;;;;;8.71;93.00;100148.75;5020247;28;20057;-71
2021/05/17 01:16:25;;;;;;;19.88;8.73;;;;;;;8.71;93.12;100156.75;5016037;28;20062;-70
2021/05/17 01:18:53;;;;;;;16.85;8.70;;;;;;;8.69;93.02;100160.41;5022848;28;20088;-70
2021/05/17 01:21:24;;;;;;;16.45;8.32;;;;;;;8.71;92.85;100154.09;5015652;28;20064;-70
2021/05/17 01:23:55;;;;;;;16.15;8.40;;;;;;;8.69;93.19;100155.06;5017893;28;20076;-71
2021/05/17 01:26:24;;;;;;;19.02;8.38;;;;;;;8.67;93.24;100154.25;5014642;28;20089;-71
2021/05/17 01:28:55;;;;;;;14.55;7.30;;;;;;;8.62;93.37;100149.09;5020445;28;20068;-71
2021/05/17 01:31:23;;;;;;;17.45;8.30;;;;;;;8.66;93.63;100152.50;5019763;28;20054;-71
2021/05/17 01:33:51;;;;;;;18.75;7.95;;;;;;;8.65;93.49;100149.00;5018177;28;20413;-71
2021/05/17 01:36:19;;;;;;;17.60;7.95;;;;;;;8.67;93.71;100147.16;5017553;28;20057;-71
2021/05/17 01:38:48;;;;;;;18.85;8.68;;;;;;;8.70;94.06;100141.72;5015611;28;20061;-71
2021/05/17 01:41:18;;;;;;;18.05;8.10;;;;;;;8.70;93.39;100139.06;5016792;28;20065;-71
2021/05/17 01:43:47;;;;;;;16.48;8.05;;;;;;;8.76;93.65;100146.81;5018227;28;20131;-71
2021/05/17 01:46:17;;;;;;;19.17;8.70;;;;;;;8.76;93.77;100138.81;5017462;28;20360;-71
2021/05/17 01:48:45;;;;;;;17.35;7.82;;;;;;;8.78;93.66;100144.09;5018483;28;20054;-71
2021/05/17 01:51:15;;;;;;;16.90;8.30;;;;;;;8.80;93.87;100136.91;5017345;28;20061;-71
2021/05/17 01:53:44;;;;;;;19.73;8.90;;;;;;;8.81;93.42;100133.34;5018976;28;20068;-71
2021/05/17 01:56:13;;;;;;;17.10;8.32;;;;;;;8.84;93.76;100141.22;5016766;28;20396;-71
2021/05/17 01:58:41;;;;;;;18.58;9.13;;;;;;;8.86;93.57;100138.50;5019163;28;20736;-71
2021/05/17 02:01:11;;;;;;;19.10;9.35;;;;;;;8.86;93.87;100146.50;5014339;28;20053;-72
2021/05/17 02:03:41;;;;;;;19.35;8.60;;;;;;;8.87;94.04;100137.56;5018727;28;20057;-72
2021/05/17 02:06:10;;;;;;;19.42;9.73;;;;;;;8.90;93.88;100142.78;5017807;28;20065;-71
2021/05/17 02:08:41;;;;;;;20.83;9.25;;;;;;;8.91;93.57;100142.75;5016914;28;20557;-71
2021/05/17 02:11:11;;;;;;;19.52;10.10;;;;;;;8.94;93.89;100144.44;5015895;28;20061;-71
2021/05/17 02:13:40;;;;;;;20.90;10.05;;;;;;;8.93;93.75;100138.22;5014859;28;20472;-70
2021/05/17 02:16:11;;;;;;;22.10;10.93;;;;;;;8.95;94.01;100143.50;5016645;28;20065;-70
2021/05/17 02:18:40;;;;;;;22.20;9.77;;;;;;;8.96;93.97;100139.91;5020303;28;20068;-69
2021/05/17 02:21:09;;;;;;;22.98;10.63;;;;;;;9.02;93.81;100136.16;5018007;28;20148;-70
2021/05/17 02:23:37;;;;;;;21.50;9.38;;;;;;;9.05;93.52;100138.69;5021369;28;20503;-70
2021/05/17 02:26:05;;;;;;;21.17;10.15;;;;;;;9.07;93.73;100137.72;5013724;28;20057;-69
2021/05/17 02:28:36;;;;;;;20.88;9.52;;;;;;;9.09;93.52;100133.22;5021391;28;20192;-70
2021/05/17 02:31:05;;;;;;;23.30;9.88;;;;;;;9.13;93.32;100128.66;5017250;28;20065;-70
2021/05/17 02:33:33;;;;;;;19.60;8.88;;;;;;;9.13;93.32;100133.97;5024628;28;20542;-69
2021/05/17 02:36:01;;;;;;;23.73;10.63;;;;;;;9.14;93.06;100141.91;5031577;28;20468;-69
2021/05/17 02:38:29;;;;;;;21.23;9.60;;;;;;;9.18;93.28;100131.13;5025347;28;20072;-71
2021/05/17 02:40:58;;;;;;;20.55;10.25;;;;;;;9.19;92.72;100132.88;5017060;28;20062;-70
2021/05/17 02:43:28;;;;;;;22.90;10.57;;;;;;;9.22;92.65;100138.94;5023972;28;20065;-69
2021/05/17 02:45:57;;;;;;;21.13;11.07;;;;;;;9.25;91.98;100132.66;5018334;28;20061;-69
2021/05/17 02:48:28;;;;;;;22.35;9.75;;;;;;;9.26;92.28;100137.03;5023087;28;20057;-69
2021/05/17 02:50:57;;;;;;;20.60;9.80;;;;;;;9.32;92.03;100139.47;5019097;28;20070;-69
2021/05/17 02:53:30;;;;;;;20.40;9.68;;;;;;;9.31;92.07;100137.72;5023666;28;20655;-69
2021/05/17 02:56:06;;;;;;;23.20;9.73;;;;;;;9.31;92.16;100135.94;5021660;28;20410;-69
2021/05/17 02:58:37;;;;;;;21.65;9.55;;;;;;;9.31;91.80;100135.94;5021489;28;20058;-69
2021/05/17 03:01:06;;;;;;;20.63;9.25;;;;;;;9.37;91.68;100139.31;5020749;28;20104;-69
2021/05/17 03:03:40;;;;;;;19.70;8.80;;;;;;;9.35;91.95;100132.22;5016234;28;20058;-69
2021/05/17 03:06:16;;;;;;;19.17;8.90;;;;;;;9.36;92.29;100133.09;5022435;28;20072;-69
2021/05/17 03:08:53;;;;;;;18.63;8.65;;;;;;;9.39;92.15;100138.31;5023053;28;20424;-69
2021/05/17 03:11:22;;;;;;;19.08;8.55;;;;;;;9.39;92.55;100129.44;5019844;28;20073;-69
2021/05/17 03:13:52;;;;;;;19.23;8.02;;;;;;;9.38;92.91;100125.94;5019038;28;20365;-69
2021/05/17 03:16:21;;;;;;;19.23;8.27;;;;;;;9.40;92.71;100133.84;5020368;28;20058;-72
2021/05/17 03:18:51;;;;;;;17.88;7.97;;;;;;;9.40;92.94;100132.06;5020031;28;20561;-71
2021/05/17 03:21:20;;;;;;;16.23;8.48;;;;;;;9.38;93.01;100135.69;5020980;28;20069;-72
2021/05/17 03:23:49;;;;;;;18.00;9.00;;;;;;;9.37;93.54;100132.19;5020888;28;20160;-71
2021/05/17 03:26:18;;;;;;;18.15;8.40;;;;;;;9.34;93.32;100138.47;5022025;28;20079;-72
2021/05/17 03:28:45;;;;;;;19.02;8.70;;;;;;;9.37;93.33;100131.31;5019056;28;20479;-72
2021/05/17 03:31:13;;;;;;;18.45;8.73;;;;;;;9.39;93.39;100126.78;5018959;28;20148;-72
2021/05/17 03:33:40;;;;;;;18.05;8.02;;;;;;;9.44;93.23;100133.66;5018846;28;20189;-72
2021/05/17 03:36:09;;;;;;;18.05;8.13;;;;;;;9.41;92.17;100131.13;5021960;28;20123;-72
2021/05/17 03:38:38;;;;;;;17.02;6.97;;;;;;;9.46;92.79;100126.47;5016081;28;20451;-72
2021/05/17 03:41:05;;;;;;;17.08;8.18;;;;;;;9.45;92.62;100129.19;5021330;28;20057;-72
2021/05/17 03:43:33;;;;;;;19.75;7.88;;;;;;;9.44;92.92;100130.16;5019041;28;20065;-71
2021/05/17 03:46:00;;;;;;;19.42;7.63;;;;;;;9.43;93.32;100131.06;5019799;28;20072;-71
2021/05/17 03:48:27;;;;;;;19.63;7.82;;;;;;;9.42;93.08;100134.66;5021824;28;20061;-71
2021/05/17 03:50:54;;;;;;;15.50;7.72;;;;;;;9.40;93.06;100125.84;5017597;28;20081;-72
2021/05/17 03:53:22;;;;;;;19.08;8.40;;;;;;;9.41;93.72;100131.13;5020702;28;20626;-71
2021/05/17 03:55:49;;;;;;;18.98;8.32;;;;;;;9.40;93.37;100131.16;5018074;28;20061;-73
2021/05/17 03:58:17;;;;;;;20.48;8.27;;;;;;;9.41;93.54;100124.94;5020999;28;20065;-71
2021/05/17 04:00:44;;;;;;;19.63;7.95;;;;;;;9.46;93.16;100128.28;5018809;28;20456;-71
2021/05/17 04:03:14;;;;;;;22.75;8.02;;;;;;;9.45;93.04;100127.44;5018937;28;20065;-71
2021/05/17 04:05:54;;;;;;;17.92;7.75;;;;;;;9.50;92.25;100130.78;5019738;28;20057;-71
2021/05/17 04:13:53;;;;;;;14.32;6.95;;;;;;;9.56;92.13;100132.31;5019248;28;20650;-72
2021/05/17 04:16:21;;;;;;;16.17;7.25;;;;;;;9.59;92.78;100126.88;5016313;28;20064;-71
2021/05/17 04:18:49;;;;;;;14.73;6.82;;;;;;;9.60;92.45;100122.41;5019585;28;20061;-73
2021/05/17 04:21:16;;;;;;;16.45;8.18;;;;;;;9.62;92.17;100139.19;5019005;28;20053;-72
2021/05/17 04:23:45;;;;;;;20.38;8.40;;;;;;;9.64;92.12;100129.38;5020292;28;20061;-72
2021/05/17 04:26:12;;;;;;;14.95;8.10;;;;;;;9.62;92.35;100132.09;5018838;28;20053;-72
2021/05/17 04:28:39;;;;;;;19.50;7.70;;;;;;;9.68;92.33;100126.50;5018132;28;20092;-72
2021/05/17 04:31:06;;;;;;;16.02;7.80;;;;;;;9.69;92.16;100122.94;5017727;28;20061;-71
2021/05/17 04:33:34;;;;;;;18.30;8.23;;;;;;;9.67;92.19;100124.78;5018546;28;20337;-72
2021/05/17 04:36:01;;;;;;;17.00;8.02;;;;;;;9.69;92.61;100124.72;5018914;28;20065;-72
2021/05/17 04:38:28;;;;;;;18.00;8.77;;;;;;;9.75;92.11;100128.94;5019327;28;20065;-71
2021/05/17 04:40:56;;;;;;;14.90;7.00;;;;;;;9.78;92.32;100129.69;5018086;28;20152;-71
2021/05/17 04:43:24;;;;;;;16.98;7.85;;;;;;;9.77;92.03;100127.06;5017798;28;20326;-72
2021/05/17 04:45:52;;;;;;;17.75;7.30;;;;;;;9.80;92.16;100134.94;5019461;28;20064;-72
2021/05/17 04:48:19;;;;;;;13.85;7.10;;;;;;;9.82;92.36;100133.09;5020576;28;20130;-72
2021/05/17 04:50:46;;;;;;;19.30;7.80;;;;;;;9.82;92.56;100125.09;5020174;28;20057;-69
2021/05/17 04:53:13;;;;;;;15.75;7.03;;;;;;;9.82;92.54;100131.28;5018871;28;20068;-69
2021/05/17 04:55:41;;;;;;;16.17;7.95;;;;;;;9.89;93.08;100139.91;5021726;28;20440;-69
2021/05/17 04:58:09;;;;;;;19.70;8.30;;;;;;;9.85;93.13;100131.16;5015588;28;20065;-69
2021/05/17 05:00:36;;;;;;;17.35;7.53;;;;;;;9.85;93.07;100141.81;5019410;28;20380;-68
2021/05/17 05:03:04;;;;;;;15.60;7.20;;;;;;;9.85;93.34;100141.81;5016401;28;20401;-69
2021/05/17 05:05:31;;;;;;;19.33;8.25;;;;;;;9.78;93.75;100142.16;5019346;28;20425;-69
2021/05/17 05:07:58;;;;;;;23.75;8.52;;;;;;;9.76;93.60;100144.88;5018871;28;20651;-69
2021/05/17 05:10:26;;;;;;;22.27;8.07;;;;;;;9.74;93.84;100141.41;5020578;28;20084;-69
2021/05/17 05:12:53;;;;;;;15.90;7.53;;;;;;;9.68;93.59;100153.16;5015883;28;20072;-68
2021/05/17 05:15:21;;;;;;;17.85;8.13;;;;;;;9.61;93.66;100149.00;5020741;28;20767;-69
2021/05/17 05:17:48;;;;;;;19.17;8.18;;;;;;;9.60;93.46;100147.25;5013991;28;20460;-69
2021/05/17 05:20:16;;;;;;;22.08;8.77;;;;;;;9.59;93.18;100137.53;5020971;28;20057;-69
2021/05/17 05:22:43;;;;;;;21.13;9.20;;;;;;;9.60;93.60;100149.91;5015903;28;20080;-69
2021/05/17 05:25:12;;;;;;;16.83;7.75;;;;;;;9.62;93.70;100144.53;5017566;28;20065;-70
2021/05/17 05:27:42;;;;;;;22.30;9.68;;;;;;;9.62;93.49;100140.09;5019265;28;20066;-70
2021/05/17 05:30:18;;;;;;;16.88;7.95;;;;;;;9.64;93.07;100142.69;5015274;28;20054;-71
2021/05/17 05:32:51;;;;;;;23.15;9.35;;;;;;;9.67;92.94;100134.56;5019806;28;20057;-70
2021/05/17 05:35:19;;;;;;;22.15;9.00;;;;;;;9.66;93.19;100140.81;5012177;28;20062;-71
2021/05/17 05:37:46;;;;;;;20.05;8.82;;;;;;;9.70;92.76;100140.66;5017067;28;20107;-70
2021/05/17 05:40:14;;;;;;;21.15;9.35;;;;;;;9.67;92.87;100143.44;5029361;28;20136;-70
2021/05/17 05:42:41;;;;;;;19.45;9.38;;;;;;;9.68;92.99;100145.16;5017297;28;20064;-71
2021/05/17 05:45:11;;;;;;;24.65;9.45;;;;;;;9.68;93.36;100142.50;5015461;28;20319;-71
2021/05/17 05:47:38;;;;;;;21.35;10.07;;;;;;;9.69;93.59;100149.56;5017136;28;20377;-71
2021/05/17 05:50:08;;;;;;;22.95;10.02;;;;;;;9.71;93.71;100145.03;5019912;28;20065;-71
2021/05/17 05:52:36;;;;;;;21.92;9.82;;;;;;;9.69;93.55;100159.38;5014372;28;20067;-70
2021/05/17 05:55:05;;;;;;;26.70;11.25;;;;;;;9.69;93.61;100157.56;5014862;28;20058;-71
2021/05/17 05:57:38;;;;;;;23.15;10.23;;;;;;;9.72;93.41;100149.44;5017960;28;20092;-70
2021/05/17 06:00:08;;;;;;;21.48;10.32;;;;;;;9.70;92.93;100156.63;5013309;28;20061;-71
2021/05/17 06:02:36;;;;;;;22.75;9.30;;;;;;;9.75;92.84;100161.75;5017668;28;20065;-71
2021/05/17 06:05:04;;;;;;;22.38;9.45;;;;;;;9.76;92.69;100157.31;5015363;28;20691;-71
2021/05/17 06:07:32;;;;;;;24.35;9.60;;;;;;;9.79;92.93;100155.41;5014241;28;20065;-71
2021/05/17 06:10:03;;;;;;;28.10;11.48;;;;;;;9.78;92.68;100152.81;5016016;28;20084;-70
2021/05/17 06:12:31;;;;;;;23.58;10.93;;;;;;;9.82;92.54;100155.25;5018168;28;20064;-70
2021/05/17 06:15:01;;;;;;;23.92;9.23;;;;;;;9.90;92.68;100162.97;5018097;28;20118;-70
2021/05/17 06:17:28;;;;;;;20.50;9.45;;;;;;;9.86;92.20;100151.56;5013880;28;20065;-71
2021/05/17 06:19:56;;;;;;;23.73;9.88;;;;;;;9.88;92.34;100163.03;5016347;28;20061;-70
2021/05/17 06:22:26;;;;;;;23.83;11.60;;;;;;;9.88;92.14;100160.34;5013522;28;20060;-70
2021/05/17 06:24:55;;;;;;;22.67;10.48;;;;;;;9.90;92.46;100162.97;5019708;28;20076;-70
2021/05/17 06:27:22;;;;;;;20.13;10.45;;;;;;;9.93;92.09;100167.28;5017979;28;20061;-71
2021/05/17 06:29:52;;;;;;;27.35;11.45;;;;;;;9.94;92.01;100167.22;5017742;28;20061;-70
2021/05/17 06:32:20;;;;;;;22.33;10.55;;;;;;;9.98;91.97;100168.00;5014948;28;20111;-70
2021/05/17 06:34:49;;;;;;;20.80;10.00;;;;;;;10.05;91.36;100169.47;5016445;28;20060;-71
2021/05/17 06:37:17;;;;;;;22.40;11.18;;;;;;;10.07;90.94;100170.28;5014974;28;20073;-71
2021/05/17 06:39:44;;;;;;;22.25;9.45;;;;;;;10.20;91.05;100171.53;5016298;28;20065;-70
2021/05/17 06:42:13;;;;;;;20.13;8.82;;;;;;;10.27;90.32;100172.13;5013280;28;20061;-70
2021/05/17 06:44:41;;;;;;;20.88;8.88;;;;;;;10.41;90.20;100167.13;5015492;28;20065;-70
2021/05/17 06:47:10;;;;;;;23.67;9.57;;;;;;;10.53;90.12;100171.06;5015471;28;20155;-70
2021/05/17 06:49:38;;;;;;;18.58;8.18;;;;;;;10.73;90.28;100172.03;5018775;28;20065;-70
2021/05/17 06:52:12;;;;;;;19.92;9.18;;;;;;;10.73;89.42;100169.34;5014394;28;20057;-70
2021/05/17 06:54:41;;;;;;;20.80;8.73;;;;;;;10.80;88.95;100173.50;5018290;28;20092;-69
2021/05/17 06:57:15;;;;;;;21.13;8.68;;;;;;;10.91;89.65;100176.53;5014844;28;20069;-69
2021/05/17 06:59:45;;;;;;;14.88;8.13;;;;;;;10.97;88.71;100176.28;5015556;28;20061;-68
2021/05/17 07:02:18;;;;;;;18.05;8.23;;;;;;;11.11;88.88;100178.31;5015773;28;20049;-69
2021/05/17 07:04:46;;;;;;;19.90;8.00;;;;;;;11.25;87.77;100183.03;5021036;28;20364;-69
2021/05/17 07:07:18;;;;;;;14.88;8.40;;;;;;;11.37;88.28;100184.28;5016409;28;20069;-70
2021/05/17 07:12:30;;;;;;;14.65;7.38;;;;;;;11.18;85.52;100189.59;5005775;28;20080;-69
2021/05/17 07:15:01;;;;;;;17.05;7.97;;;;;;;11.42;86.63;100184.09;5019586;28;20562;-69
2021/05/17 07:17:30;;;;;;;16.85;8.13;;;;;;;11.62;86.90;100192.03;5021106;28;20515;-69
2021/05/17 07:19:57;;;;;;;19.27;9.30;;;;;;;11.69;85.53;100193.47;5017072;28;20491;-69
2021/05/17 07:25:10;;;;;;;18.45;8.25;;;;;;;11.80;84.63;100192.09;5017364;28;20389;-69
2021/05/17 07:27:37;;;;;;;13.32;8.13;;;;;;;12.06;85.16;100199.78;5022897;28;20467;-69
2021/05/17 07:30:07;;;;;;;19.02;8.23;;;;;;;12.23;85.17;100195.44;5019607;28;20560;-69
2021/05/17 07:32:34;;;;;;;13.05;7.93;;;;;;;12.09;82.80;100198.78;5023190;28;20296;-69
2021/05/17 07:35:02;;;;;;;15.07;7.80;;;;;;;12.00;84.42;100202.75;5018350;28;20065;-69
2021/05/17 07:37:29;;;;;;;17.25;8.43;;;;;;;12.01;83.39;100203.63;5024983;28;20290;-69
2021/05/17 07:39:56;;;;;;;16.23;8.05;;;;;;;11.80;83.53;100211.72;5017491;28;20064;-69
2021/05/17 07:42:24;;;;;;;17.52;8.02;;;;;;;11.51;83.61;100205.03;5022319;28;20362;-69
2021/05/17 07:44:51;;;;;;;14.48;9.20;;;;;;;11.62;85.54;100212.56;5017406;28;20471;-69
2021/05/17 07:47:19;;;;;;;15.30;8.57;;;;;;;11.58;84.22;100204.69;5023035;28;20061;-70
2021/05/17 07:49:52;;;;;;;13.88;7.57;;;;;;;11.54;83.65;100207.56;5017549;28;20062;-69
2021/05/17 07:52:20;;;;;;;13.35;7.57;;;;;;;11.47;82.96;100214.13;5016906;28;20116;-69
2021/05/17 07:54:48;;;;;;;13.27;7.32;;;;;;;11.56;83.93;100213.69;5021246;28;20503;-69
2021/05/17 07:57:15;;;;;;;17.23;8.43;;;;;;;11.36;84.33;100210.16;5017052;28;20441;-70
2021/05/17 07:59:43;;;;;;;21.50;9.00;;;;;;;11.40;84.43;100213.53;5022335;28;20151;-70
2021/05/17 08:02:13;;;;;;;16.40;8.05;;;;;;;11.50;84.96;100220.19;5019567;28;20069;-70
2021/05/17 08:04:42;;;;;;;23.50;8.98;;;;;;;11.45;84.41;100222.22;5023572;28;20069;-71
2021/05/17 08:07:09;;;;;;;15.10;8.55;;;;;;;11.48;83.21;100224.75;5016125;28;20320;-70
2021/05/17 08:09:36;;;;;;;14.63;7.75;;;;;;;11.51;84.39;100223.72;5021563;28;20199;-71
2021/05/17 08:12:05;;;;;;;15.52;8.23;;;;;;;11.57;85.32;100232.31;5014965;28;20061;-70
2021/05/17 08:14:32;;;;;;;16.40;7.90;;;;;;;11.58;85.16;100235.91;5034795;28;20069;-70
2021/05/17 08:17:02;;;;;;;17.10;7.93;;;;;;;11.53;84.49;100240.56;5011823;28;20406;-70
2021/05/17 08:19:31;;;;;;;18.65;8.25;;;;;;;11.42;85.00;100229.50;5024911;28;20069;-71
2021/05/17 08:22:00;;;;;;;16.83;8.20;;;;;;;11.52;87.11;100241.50;5013708;28;20065;-70
2021/05/17 08:24:28;;;;;;;17.88;8.70;;;;;;;11.59;86.19;100246.50;5021099;28;20065;-69
2021/05/17 08:26:55;;;;;;;16.08;8.60;;;;;;;11.63;86.47;100244.56;5011690;28;20088;-70
2021/05/17 08:29:24;;;;;;;16.92;8.95;;;;;;;11.53;86.05;100243.25;5018608;28;20068;-70
2021/05/17 08:31:52;;;;;;;19.33;9.00;;;;;;;11.55;86.93;100249.38;5013783;28;20066;-70
2021/05/17 08:34:19;;;;;;;20.33;8.82;;;;;;;11.64;86.98;100248.09;5023749;28;20675;-70
2021/05/17 08:36:46;;;;;;;16.67;8.80;;;;;;;11.50;84.84;100254.06;5016500;28;20632;-70
2021/05/17 08:39:14;;;;;;;17.45;9.18;;;;;;;11.53;85.88;100257.47;5017703;28;20061;-71
2021/05/17 08:41:42;;;;;;;18.73;9.93;;;;;;;11.64;85.77;100253.44;5018148;28;20057;-71
2021/05/17 08:44:11;;;;;;;16.65;9.38;;;;;;;11.75;86.66;100261.84;5017029;28;20449;-71
2021/05/17 08:46:42;;;;;;;19.60;9.23;;;;;;;11.87;86.16;100261.25;5017255;28;20100;-70
2021/05/17 08:49:10;;;;;;;18.60;9.82;;;;;;;11.79;85.26;100268.75;5016581;28;20439;-70
2021/05/17 08:51:37;;;;;;;19.45;9.75;;;;;;;11.64;86.22;100275.66;5016915;28;20062;-71
2021/05/17 08:54:06;;;;;;;14.02;6.95;;;;;;;11.48;86.44;100274.66;5021299;28;20342;-70
2021/05/17 08:56:36;;;;;;;14.75;7.00;;;;;;;11.31;86.92;100281.59;5013231;28;20463;-70
2021/05/17 08:59:05;;;;;;;14.25;7.47;;;;;;;11.24;88.22;100279.25;5020818;28;20069;-70
2021/05/17 09:01:33;;;;;;;13.10;6.85;;;;;;;11.38;88.22;100291.06;5018165;28;20084;-70
2021/05/17 09:04:02;;;;;;;9.57;5.28;;;;;;;11.23;87.25;100285.53;5018808;28;23651;-70
2021/05/17 09:06:38;;;;;;;10.90;5.32;;;;;;;11.35;88.03;100287.66;5018508;28;20068;-71
2021/05/17 09:09:06;;;;;;;10.07;5.65;;;;;;;11.45;88.23;100290.81;5015426;28;20068;-70
2021/05/17 09:11:35;;;;;;;12.80;6.43;;;;;;;11.40;88.99;100289.19;5017852;28;20246;-69
2021/05/17 09:14:11;;;;;;;13.45;6.65;;;;;;;11.55;89.05;100284.13;5015746;28;20097;-69
2021/05/17 09:16:50;;;;;;;13.45;7.55;;;;;;;11.50;88.00;100296.81;5017303;28;20080;-69
2021/05/17 09:19:19;;;;;;;14.43;8.05;;;;;;;11.73;87.25;100291.31;5016404;28;20161;-70
2021/05/17 09:22:03;;;;;;;13.85;8.10;;;;;;;11.96;87.04;100300.09;5018974;28;20434;-70
2021/05/17 09:24:35;;;;;;;17.50;8.75;;;;;;;11.91;86.99;100297.63;5016379;28;20079;-70
2021/05/17 09:27:05;;;;;;;15.77;8.13;;;;;;;11.81;86.56;100298.97;5017043;28;20088;-71
2021/05/17 09:29:41;;;;;;;16.23;7.57;;;;;;;12.16;85.41;100304.53;5019307;28;20062;-71
2021/05/17 09:32:21;;;;;;;16.58;8.10;;;;;;;12.73;84.49;100300.91;5033483;28;20395;-71
2021/05/17 09:34:59;;;;;;;15.10;7.93;;;;;;;12.99;84.38;100305.84;5015624;28;20061;-71
2021/05/17 09:37:41;;;;;;;13.32;7.50;;;;;;;13.21;81.29;100310.97;5022538;28;20064;-72
2021/05/17 09:40:16;;;;;;;17.80;8.27;;;;;;;13.05;83.70;100308.19;5014307;28;20251;-71
2021/05/17 09:42:45;;;;;;;17.17;7.00;;;;;;;12.84;83.19;100314.63;5024317;28;20200;-68
2021/05/17 09:45:13;;;;;;;14.65;7.20;;;;;;;12.61;84.25;100319.28;5015090;28;20230;-69
2021/05/17 09:47:43;;;;;;;14.77;7.68;;;;;;;12.50;86.22;100325.19;5014722;28;20140;-69
2021/05/17 09:50:10;;;;;;;14.30;7.18;;;;;;;12.23;85.62;100326.50;5014728;28;20060;-69
2021/05/17 09:52:39;;;;;;;15.48;7.32;;;;;;;12.05;87.23;100337.09;5014745;28;20049;-69
2021/05/17 09:55:08;;;;;;;14.10;6.57;;;;;;;11.77;86.14;100334.81;5017274;28;20057;-69
2021/05/17 09:57:37;;;;;;;10.52;5.50;;;;;;;11.66;85.61;100337.06;5013357;28;20095;-70
2021/05/17 10:00:11;;;;;;;11.38;6.25;;;;;;;11.86;86.86;100344.19;5016950;28;20053;-70
2021/05/17 10:02:40;;;;;;;11.45;6.00;;;;;;;11.94;86.49;100348.28;5018451;28;20061;-71
2021/05/17 10:05:24;;;;;;;14.75;6.28;;;;;;;11.79;84.20;100351.63;5015477;28;20079;-71
2021/05/17 10:07:54;;;;;;;15.70;5.30;;;;;;;11.74;85.71;100351.81;5014018;28;20084;-71
2021/05/17 10:10:40;;;;;;;11.10;5.50;;;;;;;11.80;86.75;100353.38;5020368;28;20057;-71
2021/05/17 10:13:08;;;;;;;10.27;4.95;;;;;;;12.02;87.29;100353.31;5013327;28;20084;-71
2021/05/17 10:15:36;;;;;;;11.85;5.05;;;;;;;11.90;85.22;100360.03;5020106;28;20072;-71
2021/05/17 10:18:12;;;;;;;12.23;5.43;;;;;;;11.92;84.80;100368.03;5012733;28;20061;-71
2021/05/17 10:20:40;;;;;;;13.40;5.40;;;;;;;11.87;85.63;100362.00;5021458;28;20457;-71
2021/05/17 10:23:08;;;;;;;15.30;5.45;;;;;;;11.84;85.86;100365.66;5011071;28;20072;-71
2021/05/17 10:25:40;;;;;;;12.75;5.07;;;;;;;11.69;84.68;100369.00;5017309;28;20058;-71
2021/05/17 10:28:10;;;;;;;10.55;4.85;;;;;;;11.83;85.24;100371.94;5010697;28;20076;-71
2021/05/17 10:30:39;;;;;;;14.75;5.82;;;;;;;11.76;85.76;100378.50;5020652;28;20083;-71
2021/05/17 10:33:08;;;;;;;11.65;5.07;;;;;;;11.91;85.51;100385.84;5011497;28;20646;-71
2021/05/17 10:35:47;;;;;;;15.75;5.40;;;;;;;12.03;86.26;100383.59;5018728;28;20068;-71
2021/05/17 10:38:24;;;;;;;13.32;5.65;;;;;;;12.09;84.32;100392.19;5012535;28;20100;-71
2021/05/17 10:40:59;;;;;;;11.50;5.10;;;;;;;12.16;84.17;100387.44;5017250;28;20053;-70
2021/05/17 10:43:53;;;;;;;12.98;5.65;;;;;;;12.43;84.12;100393.31;5013604;28;20065;-70
2021/05/17 10:46:38;;;;;;;15.45;5.47;;;;;;;12.76;83.62;100398.00;5010622;28;20053;-70
2021/05/17 10:49:29;;;;;;;19.17;5.97;;;;;;;12.87;81.72;100394.78;5018588;28;20053;-69
2021/05/17 10:52:12;;;;;;;15.25;5.30;;;;;;;12.89;81.85;100401.81;5020603;28;20433;-69
2021/05/17 10:54:42;;;;;;;15.15;5.20;;;;;;;12.62;79.85;100406.69;5021127;28;20065;-70
2021/05/17 10:57:18;;;;;;;19.75;6.43;;;;;;;12.47;81.61;100418.97;5019240;28;20516;-69
2021/05/17 11:02:36;;;;;;;16.58;6.13;;;;;;;12.10;84.31;100428.69;5022894;28;20346;-69
2021/05/17 11:05:09;;;;;;;15.70;6.75;;;;;;;11.99;84.58;100432.78;5020463;28;20070;-69
2021/05/17 11:07:46;;;;;;;15.80;6.30;;;;;;;12.18;83.98;100446.22;5022083;28;20360;-69
2021/05/17 11:10:17;;;;;;;18.15;6.45;;;;;;;12.43;84.65;100445.94;5021320;28;20479;-69
2021/05/17 11:13:09;;;;;;;10.85;5.95;;;;;;;12.84;82.57;100451.19;5017507;28;20299;-69
2021/05/17 11:16:01;;;;;;;13.88;5.07;;;;;;;12.79;81.23;100447.88;5019753;28;20508;-68
2021/05/17 11:18:47;;;;;;;10.90;5.00;;;;;;;12.55;80.73;100453.44;5018363;28;20479;-68
2021/05/17 11:21:23;;;;;;;10.27;5.07;;;;;;;12.47;80.04;100466.28;5018983;28;20065;-68
2021/05/17 11:23:56;;;;;;;8.38;4.50;;;;;;;12.54;78.44;100472.22;5022383;28;20449;-68
2021/05/17 11:26:26;;;;;;;13.93;5.35;;;;;;;12.82;80.07;100471.78;5020715;28;20061;-68
2021/05/17 11:29:11;;;;;;;9.73;4.25;;;;;;;12.77;79.01;100487.19;5018330;28;20061;-68
2021/05/17 11:31:45;;;;;;;9.90;3.70;;;;;;;12.92;76.81;100491.84;5017656;28;20084;-69
2021/05/17 11:34:26;;;;;;;7.43;3.72;;;;;;;12.93;74.93;100490.03;5015368;28;20096;-69
2021/05/17 11:37:13;;;;;;;9.20;4.40;;;;;;;13.31;75.71;100498.91;5016705;28;20055;-69
2021/05/17 11:39:42;;;;;;;8.25;3.95;;;;;;;13.27;74.65;100494.66;5019786;28;20070;-69
2021/05/17 11:42:12;;;;;;;9.25;4.18;;;;;;;13.68;76.21;100513.19;5020827;28;20054;-69
2021/05/17 11:44:43;;;;;;;10.68;5.30;;;;;;;13.95;73.73;100507.38;5016850;28;20054;-69
2021/05/17 11:47:12;;;;;;;13.45;6.45;;;;;;;14.04;73.49;100516.78;5023412;28;20061;-69
2021/05/17 11:49:47;;;;;;;12.80;5.95;;;;;;;13.81;74.89;100525.03;5015805;28;20069;-71